createdAt,value
2019-03-18T00:02:06.433Z,74.20
2019-03-18T00:04:34.935Z,73.30
2019-03-18T00:07:05.381Z,73.80
2019-03-18T00:09:34.164Z,73.60
2019-03-18T00:12:02.728Z,74.90
2019-03-18T00:14:31.383Z,74.40
2019-03-18T00:17:00.319Z,74.60
2019-03-18T00:19:29.413Z,73.80
2019-03-18T00:22:19.757Z,73.80
2019-03-18T00:24:48.443Z,73.90
2019-03-18T00:27:20.999Z,73.80
2019-03-18T00:29:50.777Z,73.70
2019-03-18T00:32:19.542Z,73.90
2019-03-18T00:34:48.115Z,74.30
2019-03-18T00:37:16.750Z,74.40
2019-03-18T00:39:45.285Z,74.60
2019-03-18T00:42:14.008Z,75.40
2019-03-18T00:44:42.693Z,74.70
2019-03-18T00:47:11.235Z,74.70
2019-03-18T00:49:39.780Z,75.10
2019-03-18T00:52:08.632Z,74.20
2019-03-18T00:54:37.201Z,73.90
2019-03-18T00:57:05.747Z,73.90
2019-03-18T00:59:34.310Z,73.40
2019-03-18T01:02:03.315Z,73.10
2019-03-18T01:04:31.943Z,73.80
2019-03-18T01:07:00.518Z,74.10
2019-03-18T01:09:29.278Z,73.70
2019-03-18T01:11:58.184Z,75.10
2019-03-18T01:14:26.871Z,75.70
2019-03-18T01:17:03.476Z,75.60
2019-03-18T01:19:32.044Z,75.20
2019-03-18T01:22:01.140Z,74.90
2019-03-18T01:24:30.031Z,75.60
2019-03-18T01:26:58.923Z,74.90
2019-03-18T01:29:27.496Z,74.60
2019-03-18T01:31:57.714Z,75.00
2019-03-18T01:34:26.353Z,75.40
2019-03-18T01:36:54.908Z,75.20
2019-03-18T01:39:23.447Z,74.90
2019-03-18T01:41:52.095Z,75.30
2019-03-18T01:44:20.654Z,75.30
2019-03-18T01:46:49.260Z,76.20
2019-03-18T01:49:18.038Z,76.00
2019-03-18T01:51:48.147Z,76.80
2019-03-18T01:54:16.692Z,76.10
2019-03-18T01:56:45.294Z,76.60
2019-03-18T01:59:14.048Z,76.70
2019-03-18T02:01:42.687Z,77.20
2019-03-18T02:04:11.220Z,76.60
2019-03-18T02:06:39.860Z,76.50
2019-03-18T02:09:08.479Z,76.10
2019-03-18T02:11:37.058Z,75.00
2019-03-18T02:14:05.646Z,75.40
2019-03-18T02:16:34.256Z,75.90
2019-03-18T02:19:23.880Z,75.60
2019-03-18T02:21:52.426Z,74.30
2019-03-18T02:24:21.040Z,74.30
2019-03-18T02:26:49.636Z,74.00
2019-03-18T02:29:18.174Z,74.80
2019-03-18T02:31:46.818Z,74.60
2019-03-18T02:34:15.379Z,73.40
2019-03-18T02:36:44.082Z,73.30
2019-03-18T02:39:12.620Z,74.50
2019-03-18T02:41:41.183Z,73.60
2019-03-18T02:44:09.830Z,73.20
2019-03-18T02:46:38.433Z,73.10
2019-03-18T02:49:06.929Z,72.70
2019-03-18T02:51:35.506Z,71.90
2019-03-18T02:54:04.042Z,71.80
2019-03-18T02:56:32.596Z,72.20
2019-03-18T02:59:07.389Z,71.90
2019-03-18T03:01:36.032Z,72.30
2019-03-18T03:04:04.673Z,72.10
2019-03-18T03:06:33.444Z,73.50
2019-03-18T03:09:02.049Z,73.70
2019-03-18T03:11:36.448Z,74.40
2019-03-18T03:14:06.193Z,74.60
2019-03-18T03:16:34.768Z,75.10
2019-03-18T03:19:03.305Z,75.50
2019-03-18T03:21:31.921Z,76.20
2019-03-18T03:24:00.497Z,77.20
2019-03-18T03:26:29.063Z,77.60
2019-03-18T03:28:57.624Z,78.00
2019-03-18T03:31:26.204Z,77.70
2019-03-18T03:33:54.717Z,78.90
2019-03-18T03:36:23.279Z,79.30
2019-03-18T03:38:51.831Z,80.00
2019-03-18T03:41:20.424Z,80.90
2019-03-18T03:43:49.273Z,81.60
2019-03-18T03:46:17.856Z,81.20
2019-03-18T03:48:46.441Z,81.70
2019-03-18T03:51:15.061Z,81.70
2019-03-18T03:53:46.140Z,82.00
2019-03-18T03:56:14.885Z,82.90
2019-03-18T03:58:43.467Z,83.40
2019-03-18T04:01:12.003Z,84.10
2019-03-18T04:03:40.688Z,84.20
2019-03-18T04:06:09.583Z,83.80
2019-03-18T04:08:41.266Z,84.60
2019-03-18T04:11:09.850Z,85.90
2019-03-18T04:13:38.388Z,86.60
2019-03-18T04:16:06.927Z,87.40
2019-03-18T04:18:35.583Z,87.00
2019-03-18T04:21:05.861Z,87.60
2019-03-18T04:23:34.515Z,87.70
2019-03-18T04:26:03.230Z,87.30
2019-03-18T04:28:31.907Z,87.60
2019-03-18T04:31:00.449Z,87.50
2019-03-18T04:33:29.056Z,87.60
2019-03-18T04:35:57.666Z,87.60
2019-03-18T04:38:26.210Z,87.50
2019-03-18T04:40:54.950Z,87.10
2019-03-18T04:43:23.501Z,86.90
2019-03-18T04:45:52.136Z,86.90
2019-03-18T04:48:20.689Z,87.30
2019-03-18T04:50:49.294Z,87.20
2019-03-18T04:53:17.839Z,87.20
2019-03-18T04:55:46.402Z,87.70
2019-03-18T04:58:14.949Z,88.20
2019-03-18T05:00:43.500Z,88.10
2019-03-18T05:03:12.126Z,88.70
2019-03-18T05:05:40.806Z,88.70
2019-03-18T05:08:09.674Z,88.60
2019-03-18T05:10:38.209Z,88.30
2019-03-18T05:13:06.762Z,88.50
2019-03-18T05:15:35.327Z,87.20
2019-03-18T05:18:03.943Z,87.20
2019-03-18T05:35:23.722Z,89.80
2019-03-18T05:41:10.837Z,89.40
2019-03-18T05:52:39.920Z,89.70
2019-03-18T05:55:23.648Z,90.20
2019-03-18T05:57:54.321Z,90.00
2019-03-18T06:00:35.554Z,89.00
2019-03-18T06:03:04.301Z,89.20
2019-03-18T06:08:24.647Z,88.70
2019-03-18T06:10:53.295Z,88.70
2019-03-18T06:13:21.854Z,87.70
2019-03-18T06:15:50.403Z,88.00
2019-03-18T06:18:18.970Z,88.50
2019-03-18T06:20:47.927Z,88.40
2019-03-18T06:23:16.460Z,87.30
2019-03-18T06:25:45.026Z,87.90
2019-03-18T06:28:13.877Z,88.10
2019-03-18T06:30:42.445Z,87.90
2019-03-18T06:33:11.448Z,87.70
2019-03-18T06:35:40.057Z,88.20
2019-03-18T06:38:08.759Z,88.30
2019-03-18T06:40:40.368Z,87.50
2019-03-18T06:43:09.470Z,88.30
2019-03-18T06:45:38.090Z,88.50
2019-03-18T06:51:01.129Z,88.20
2019-03-18T06:53:29.682Z,87.30
2019-03-18T06:55:58.397Z,88.40
2019-03-18T06:58:26.958Z,85.60
2019-03-18T07:00:55.752Z,84.90
2019-03-18T07:03:24.532Z,85.20
2019-03-18T07:08:56.047Z,81.30
2019-03-18T07:11:24.908Z,79.60
2019-03-18T07:13:53.439Z,78.80
2019-03-18T07:16:22.026Z,77.00
2019-03-18T07:18:52.236Z,76.40
2019-03-18T07:21:20.778Z,76.50
2019-03-18T07:23:49.389Z,76.10
2019-03-18T07:26:17.975Z,75.80
2019-03-18T07:28:46.569Z,75.00
2019-03-18T07:31:15.141Z,75.30
2019-03-18T07:33:43.720Z,75.20
2019-03-18T07:36:12.371Z,74.70
2019-03-18T07:38:40.935Z,74.80
2019-03-18T07:41:09.531Z,74.20
2019-03-18T07:43:38.090Z,74.30
2019-03-18T07:46:06.665Z,73.00
2019-03-18T07:48:35.493Z,75.80
2019-03-18T07:51:04.127Z,73.50
2019-03-18T07:53:32.667Z,74.00
2019-03-18T07:56:01.242Z,72.20
2019-03-18T07:58:29.797Z,71.00
2019-03-18T08:00:58.481Z,70.90
2019-03-18T08:03:28.154Z,71.60
2019-03-18T08:05:59.853Z,72.20
2019-03-18T08:08:28.589Z,72.00
2019-03-18T08:10:57.548Z,72.30
2019-03-18T08:13:26.434Z,71.90
2019-03-18T08:15:55.145Z,69.40
2019-03-18T08:18:23.691Z,71.10
2019-03-18T08:20:52.348Z,69.00
2019-03-18T08:23:20.909Z,71.60
2019-03-18T08:25:55.409Z,71.00
2019-03-18T08:31:28.352Z,71.10
2019-03-18T08:33:59.956Z,67.00
2019-03-18T08:45:08.389Z,74.00
2019-03-18T08:47:48.524Z,75.40
2019-03-18T08:50:17.381Z,74.90
2019-03-18T08:52:50.060Z,76.00
2019-03-18T08:55:25.244Z,75.90
2019-03-18T09:00:42.466Z,74.30
2019-03-18T09:03:15.001Z,73.10
2019-03-18T09:05:46.728Z,72.20
2019-03-18T09:11:14.825Z,73.10
2019-03-18T09:13:51.431Z,73.60
2019-03-18T09:16:20.191Z,73.90
2019-03-18T09:21:54.977Z,71.40
2019-03-18T09:24:35.547Z,69.90
2019-03-18T09:27:04.428Z,70.60
2019-03-18T09:29:34.236Z,66.90
2019-03-18T09:32:05.331Z,66.50
2019-03-18T09:37:54.149Z,66.90
2019-03-18T09:43:29.161Z,63.10
2019-03-18T09:46:04.534Z,61.10
2019-03-18T10:02:58.491Z,55.60
2019-03-18T10:05:43.942Z,57.40
2019-03-18T10:08:25.111Z,64.50
2019-03-18T10:10:59.189Z,69.50
2019-03-18T10:13:40.701Z,74.10
2019-03-18T10:24:56.136Z,54.30
2019-03-18T10:27:28.104Z,48.80
2019-03-18T10:29:59.026Z,52.20
2019-03-18T10:32:29.376Z,51.70
2019-03-18T10:35:01.109Z,50.00
2019-03-18T10:37:40.147Z,46.70
2019-03-18T10:51:56.310Z,49.80
2019-03-18T10:54:30.749Z,53.00
2019-03-18T11:17:56.447Z,46.60
2019-03-18T11:20:25.512Z,48.10
2019-03-18T11:22:54.142Z,51.90
2019-03-18T11:25:23.644Z,58.90
2019-03-18T11:28:02.847Z,63.20
2019-03-18T11:30:34.355Z,66.20
2019-03-18T11:33:09.601Z,66.80
2019-03-18T12:19:18.929Z,51.80
2019-03-18T12:21:52.798Z,52.40
2019-03-18T12:24:23.823Z,52.30
2019-03-18T12:30:03.802Z,52.20
2019-03-18T12:38:21.675Z,53.00
2019-03-18T12:40:56.854Z,51.20
2019-03-18T12:43:28.246Z,48.70
2019-03-18T12:46:20.961Z,48.80
2019-03-18T12:49:04.421Z,48.00
2019-03-18T12:51:44.482Z,47.30
2019-03-18T13:03:09.130Z,45.70
2019-03-18T13:05:42.442Z,47.50
2019-03-18T13:08:11.357Z,50.60
2019-03-18T13:10:40.008Z,47.90
2019-03-18T13:13:09.715Z,47.60
2019-03-18T13:15:51.047Z,47.00
2019-03-18T13:18:38.434Z,46.80
2019-03-18T13:21:17.088Z,45.20
2019-03-18T13:23:51.533Z,45.80
2019-03-18T13:32:28.619Z,45.40
2019-03-18T13:35:35.320Z,45.00
2019-03-18T13:41:05.725Z,45.30
2019-03-18T13:43:37.286Z,43.40
2019-03-18T13:46:05.876Z,43.60
2019-03-18T13:54:16.677Z,41.50
2019-03-18T13:56:46.096Z,41.60
2019-03-18T13:59:14.771Z,43.20
2019-03-18T14:01:45.604Z,44.40
2019-03-18T14:04:14.315Z,44.20
2019-03-18T14:06:47.917Z,46.80
2019-03-18T14:09:17.090Z,46.30
2019-03-18T14:11:46.676Z,45.00
2019-03-18T14:14:15.356Z,44.70
2019-03-18T14:16:44.039Z,44.20
2019-03-18T14:19:13.335Z,44.00
2019-03-18T14:21:44.832Z,46.20
2019-03-18T14:24:17.183Z,43.80
2019-03-18T14:26:45.787Z,44.70
2019-03-18T14:29:14.643Z,46.40
2019-03-18T14:31:43.774Z,45.10
2019-03-18T14:34:12.846Z,44.10
2019-03-18T14:36:44.203Z,45.10
2019-03-18T14:45:16.117Z,45.90
2019-03-18T14:53:45.379Z,43.60
2019-03-18T14:56:14.094Z,42.40
2019-03-18T14:58:42.708Z,40.80
2019-03-18T15:01:15.991Z,40.10
2019-03-18T15:06:39.275Z,46.40
2019-03-18T15:09:29.249Z,44.80
2019-03-18T15:11:57.812Z,45.90
2019-03-18T15:14:26.368Z,46.50
2019-03-18T15:16:55.098Z,48.00
2019-03-18T15:19:23.661Z,50.90
2019-03-18T15:21:58.504Z,50.50
2019-03-18T15:24:22.577Z,49.80
2019-03-18T15:26:52.589Z,50.00
2019-03-18T15:29:22.005Z,50.10
2019-03-18T15:31:52.217Z,50.90
2019-03-18T15:34:21.002Z,51.90
2019-03-18T15:36:49.897Z,49.80
2019-03-18T15:39:25.560Z,51.10
2019-03-18T15:41:52.703Z,51.60
2019-03-18T15:44:21.257Z,53.40
2019-03-18T15:46:50.057Z,54.80
2019-03-18T15:49:18.595Z,52.60
2019-03-18T15:51:47.139Z,51.70
2019-03-18T15:54:23.766Z,48.90
2019-03-18T15:56:52.492Z,51.20
2019-03-18T15:59:21.112Z,50.40
2019-03-18T16:01:51.187Z,49.70
2019-03-18T16:04:19.959Z,49.80
2019-03-18T16:06:48.736Z,48.70
2019-03-18T16:09:17.654Z,46.70
2019-03-18T16:11:46.573Z,47.50
2019-03-18T16:14:15.179Z,46.30
2019-03-18T16:16:44.015Z,47.50
2019-03-18T16:19:12.672Z,47.00
2019-03-18T16:21:41.593Z,48.10
2019-03-18T16:24:10.139Z,47.90
2019-03-18T16:26:38.727Z,49.20
2019-03-18T16:29:07.262Z,50.20
2019-03-18T16:31:35.867Z,51.00
2019-03-18T16:34:04.810Z,50.90
2019-03-18T16:36:33.353Z,51.50
2019-03-18T16:39:02.355Z,50.50
2019-03-18T16:41:36.826Z,51.60
2019-03-18T16:44:05.420Z,51.50
2019-03-18T16:46:34.645Z,51.80
2019-03-18T16:49:03.243Z,52.40
2019-03-18T16:51:31.786Z,52.50
2019-03-18T16:54:00.370Z,52.50
2019-03-18T16:56:28.950Z,53.30
2019-03-18T16:58:57.492Z,53.00
2019-03-18T17:01:26.239Z,54.30
2019-03-18T17:03:54.829Z,55.10
2019-03-18T17:06:38.016Z,55.60
2019-03-18T17:09:27.831Z,55.50
2019-03-18T17:11:56.649Z,55.90
2019-03-18T17:14:25.207Z,56.90
2019-03-18T17:16:53.885Z,57.00
2019-03-18T17:19:22.438Z,57.40
2019-03-18T17:21:51.192Z,58.10
2019-03-18T17:24:19.756Z,58.50
2019-03-18T17:26:48.355Z,59.00
2019-03-18T17:29:17.459Z,59.60
2019-03-18T17:31:46.230Z,60.00
2019-03-18T17:34:15.347Z,59.90
2019-03-18T17:36:44.445Z,59.90
2019-03-18T17:39:16.130Z,60.50
2019-03-18T17:41:44.692Z,59.80
2019-03-18T17:44:15.004Z,59.70
2019-03-18T17:46:43.545Z,59.80
2019-03-18T17:49:12.372Z,60.00
2019-03-18T17:51:41.255Z,60.00
2019-03-18T17:54:10.304Z,60.10
2019-03-18T17:56:38.852Z,60.40
2019-03-18T17:59:26.965Z,60.00
2019-03-18T18:01:54.706Z,60.00
2019-03-18T18:04:23.341Z,60.10
2019-03-18T18:06:53.427Z,60.00
2019-03-18T18:09:22.328Z,60.80
2019-03-18T18:11:52.760Z,60.90
2019-03-18T18:14:21.562Z,61.20
2019-03-18T18:16:50.215Z,61.50
2019-03-18T18:19:19.115Z,61.10
2019-03-18T18:21:47.915Z,61.40
2019-03-18T18:24:16.547Z,61.20
2019-03-18T18:26:45.228Z,61.90
2019-03-18T18:29:14.681Z,61.60
2019-03-18T18:31:44.976Z,62.00
2019-03-18T18:34:13.530Z,62.10
2019-03-18T18:36:42.067Z,63.00
2019-03-18T18:39:10.651Z,62.70
2019-03-18T18:41:39.179Z,63.20
2019-03-18T18:44:08.224Z,63.80
2019-03-18T18:46:37.048Z,63.30
2019-03-18T18:49:05.656Z,62.50
2019-03-18T18:51:34.315Z,61.40
2019-03-18T18:54:03.216Z,61.30
2019-03-18T18:56:32.089Z,61.30
2019-03-18T18:59:00.611Z,61.00
2019-03-18T19:01:29.208Z,61.40
2019-03-18T19:03:57.983Z,62.10
2019-03-18T19:06:26.727Z,62.20
2019-03-18T19:08:55.306Z,62.10
2019-03-18T19:11:23.817Z,62.40
2019-03-18T19:13:52.361Z,62.20
2019-03-18T19:16:20.923Z,62.40
2019-03-18T19:18:49.813Z,62.20
2019-03-18T19:21:18.525Z,62.90
2019-03-18T19:23:47.350Z,63.00
2019-03-18T19:26:16.125Z,63.40
2019-03-18T19:28:44.914Z,63.60
2019-03-18T19:31:13.684Z,64.10
2019-03-18T19:33:42.507Z,65.00
2019-03-18T19:36:11.051Z,65.10
2019-03-18T19:38:39.597Z,65.40
2019-03-18T19:41:08.226Z,65.60
2019-03-18T19:43:36.713Z,65.70
2019-03-18T19:46:05.249Z,65.20
2019-03-18T19:48:34.491Z,64.80
2019-03-18T19:51:03.213Z,65.40
2019-03-18T19:53:31.796Z,65.00
2019-03-18T19:56:00.400Z,64.80
2019-03-18T19:58:28.891Z,65.30
2019-03-18T20:00:57.528Z,65.30
2019-03-18T20:03:26.059Z,65.80
2019-03-18T20:05:54.898Z,66.10
2019-03-18T20:08:23.612Z,66.10
2019-03-18T20:10:53.751Z,66.40
2019-03-18T20:13:22.584Z,66.70
2019-03-18T20:15:51.414Z,67.00
2019-03-18T20:18:21.541Z,67.40
2019-03-18T20:20:50.359Z,67.80
2019-03-18T20:23:19.141Z,68.00
2019-03-18T20:25:47.967Z,68.50
2019-03-18T20:28:18.316Z,68.90
2019-03-18T20:30:47.154Z,69.10
2019-03-18T20:33:16.024Z,69.90
2019-03-18T20:35:44.848Z,70.10
2019-03-18T20:38:13.607Z,70.30
2019-03-18T20:40:42.691Z,70.30
2019-03-18T20:43:11.259Z,70.20
2019-03-18T20:45:59.144Z,70.40
2019-03-18T20:48:27.683Z,70.10
2019-03-18T20:50:56.735Z,70.10
2019-03-18T20:53:25.811Z,70.20
2019-03-18T20:55:54.341Z,70.30
2019-03-18T20:58:22.900Z,70.90
2019-03-18T21:00:52.998Z,70.70
2019-03-18T21:03:22.023Z,71.00
2019-03-18T21:05:50.555Z,71.30
2019-03-18T21:08:19.138Z,71.70
2019-03-18T21:10:48.452Z,72.10
2019-03-18T21:13:17.222Z,71.90
2019-03-18T21:15:45.774Z,72.10
2019-03-18T21:18:14.256Z,72.60
2019-03-18T21:20:42.819Z,72.80
2019-03-18T21:23:11.359Z,73.10
2019-03-18T21:25:39.960Z,73.70
2019-03-18T21:28:08.519Z,73.50
2019-03-18T21:30:37.061Z,73.50
2019-03-18T21:33:05.829Z,73.80
2019-03-18T21:35:34.395Z,73.60
2019-03-18T21:38:02.947Z,73.50
2019-03-18T21:40:31.571Z,73.60
2019-03-18T21:43:00.369Z,74.20
2019-03-18T21:45:28.942Z,74.30
2019-03-18T21:47:57.485Z,74.00
2019-03-18T21:50:26.164Z,75.00
2019-03-18T21:52:55.009Z,75.50
2019-03-18T21:55:23.547Z,75.50
2019-03-18T21:57:52.143Z,76.40
2019-03-18T22:00:44.502Z,76.20
2019-03-18T22:03:13.040Z,76.30
2019-03-18T22:05:41.694Z,76.70
2019-03-18T22:08:10.230Z,77.20
2019-03-18T22:10:38.723Z,77.80
2019-03-18T22:13:07.334Z,76.70
2019-03-18T22:15:55.184Z,77.00
2019-03-18T22:18:22.939Z,77.30
2019-03-18T22:20:53.440Z,77.50
2019-03-18T22:23:22.240Z,77.50
2019-03-18T22:25:50.777Z,77.40
2019-03-18T22:28:19.713Z,77.70
2019-03-18T22:30:48.351Z,78.10
2019-03-18T22:33:16.891Z,78.20
2019-03-18T22:35:45.531Z,78.30
2019-03-18T22:38:14.071Z,77.80
2019-03-18T22:40:42.611Z,77.70
2019-03-18T22:43:11.175Z,77.50
2019-03-18T22:45:39.730Z,77.90
2019-03-18T22:48:08.297Z,77.80
2019-03-18T22:50:36.829Z,78.10
2019-03-18T22:53:05.503Z,77.70
2019-03-18T22:55:34.071Z,77.00
2019-03-18T22:58:02.613Z,77.30
2019-03-18T23:00:32.971Z,77.00
2019-03-18T23:03:02.628Z,77.40
2019-03-18T23:05:31.515Z,77.40
2019-03-18T23:08:00.055Z,77.50
2019-03-18T23:10:28.627Z,78.60
2019-03-18T23:12:57.244Z,78.10
2019-03-18T23:15:25.803Z,77.80
2019-03-18T23:17:54.378Z,77.20
2019-03-18T23:20:23.321Z,77.10
2019-03-18T23:22:51.862Z,77.20
2019-03-18T23:25:20.440Z,77.40
2019-03-18T23:27:48.999Z,77.30
2019-03-18T23:30:18.061Z,77.10
2019-03-18T23:32:46.631Z,77.50
2019-03-18T23:35:15.173Z,78.30
2019-03-18T23:37:43.736Z,78.70
2019-03-18T23:40:13.519Z,79.10
2019-03-18T23:42:42.059Z,79.70
2019-03-18T23:45:31.479Z,79.60
2019-03-18T23:47:59.939Z,79.60
2019-03-18T23:50:28.485Z,79.70
2019-03-18T23:52:57.110Z,79.60
2019-03-18T23:55:25.732Z,80.20
2019-03-18T23:57:54.569Z,79.40
